createdAt,value
2017-06-27T00:01:40.693Z,2.33
2017-06-27T00:04:08.526Z,3.08
2017-06-27T00:06:41.438Z,2.82
2017-06-27T00:09:10.542Z,2.42
2017-06-27T00:11:38.047Z,3.30
2017-06-27T00:14:06.832Z,3.25
2017-06-27T00:16:34.383Z,2.97
2017-06-27T00:19:01.243Z,3.17
2017-06-27T00:21:33.745Z,3.35
2017-06-27T00:24:08.146Z,3.42
2017-06-27T00:26:38.571Z,2.75
2017-06-27T00:29:08.512Z,2.98
2017-06-27T00:31:38.868Z,3.70
2017-06-27T00:34:06.358Z,3.08
2017-06-27T00:36:35.257Z,3.17
2017-06-27T00:39:04.032Z,3.10
2017-06-27T00:41:32.818Z,3.50
2017-06-27T00:44:05.670Z,3.27
2017-06-27T00:46:33.174Z,2.85
2017-06-27T00:49:04.106Z,3.48
2017-06-27T00:51:38.479Z,3.02
2017-06-27T00:54:06.886Z,3.58
2017-06-27T00:56:34.166Z,3.98
2017-06-27T00:59:01.462Z,2.82
2017-06-27T01:01:28.777Z,4.23
2017-06-27T01:03:56.551Z,2.95
2017-06-27T01:06:29.962Z,2.77
2017-06-27T01:09:03.356Z,3.10
2017-06-27T01:11:32.161Z,3.53
2017-06-27T01:14:05.192Z,3.25
2017-06-27T01:16:34.936Z,3.55
2017-06-27T01:19:02.769Z,2.97
2017-06-27T01:21:34.971Z,3.62
2017-06-27T01:24:02.704Z,3.40
2017-06-27T01:26:29.965Z,2.92
2017-06-27T01:29:01.769Z,3.48
2017-06-27T01:31:31.758Z,3.80
2017-06-27T01:33:58.777Z,2.82
2017-06-27T01:36:29.960Z,4.03
2017-06-27T01:39:00.919Z,3.73
2017-06-27T01:44:03.379Z,4.30
2017-06-27T01:46:32.038Z,4.03
2017-06-27T01:49:06.970Z,2.98
2017-06-27T01:51:34.440Z,3.82
2017-06-27T01:54:02.005Z,3.63
2017-06-27T01:56:30.172Z,3.35
2017-06-27T01:59:02.236Z,3.37
2017-06-27T02:01:31.777Z,4.30
2017-06-27T02:03:59.516Z,4.03
2017-06-27T02:06:30.911Z,3.62
2017-06-27T02:08:59.739Z,3.97
2017-06-27T02:11:35.839Z,4.42
2017-06-27T02:14:05.322Z,3.62
2017-06-27T02:16:32.117Z,3.88
2017-06-27T02:19:09.623Z,3.23
2017-06-27T02:21:40.226Z,3.70
2017-06-27T02:24:10.277Z,4.28
2017-06-27T02:26:38.600Z,3.57
2017-06-27T02:36:44.535Z,4.05
2017-06-27T02:39:12.870Z,3.58
2017-06-27T02:41:43.087Z,4.28
2017-06-27T02:44:13.546Z,4.42
2017-06-27T02:46:41.905Z,4.47
2017-06-27T02:49:12.768Z,4.10
2017-06-27T02:51:40.911Z,4.60
2017-06-27T02:54:09.281Z,3.45
2017-06-27T02:56:37.999Z,4.55
2017-06-27T02:59:08.908Z,3.92
2017-06-27T03:01:38.222Z,4.57
2017-06-27T03:04:07.720Z,4.12
2017-06-27T03:06:34.709Z,3.63
2017-06-27T03:09:04.914Z,4.58
2017-06-27T03:11:36.854Z,3.43
2017-06-27T03:14:05.890Z,3.50
2017-06-27T03:16:34.133Z,4.00
2017-06-27T03:19:05.846Z,3.42
2017-06-27T03:21:35.528Z,3.60
2017-06-27T03:24:03.524Z,4.65
2017-06-27T03:26:32.316Z,4.42
2017-06-27T03:29:02.808Z,4.18
2017-06-27T03:31:29.578Z,4.12
2017-06-27T03:33:57.628Z,5.95
2017-06-27T03:36:25.422Z,3.73
2017-06-27T03:38:53.335Z,4.18
2017-06-27T03:41:23.359Z,4.18
2017-06-27T03:43:53.521Z,3.58
2017-06-27T03:46:28.911Z,3.95
2017-06-27T03:48:58.404Z,4.28
2017-06-27T03:51:29.406Z,3.73
2017-06-27T03:53:57.108Z,5.03
2017-06-27T03:56:24.711Z,3.87
2017-06-27T03:58:52.302Z,3.42
2017-06-27T04:03:53.015Z,3.75
2017-06-27T04:06:22.742Z,4.28
2017-06-27T04:08:52.039Z,3.48
2017-06-27T04:11:19.261Z,4.47
2017-06-27T04:13:49.838Z,3.62
2017-06-27T04:16:17.081Z,3.05
2017-06-27T04:18:45.353Z,4.13
2017-06-27T04:21:15.772Z,3.88
2017-06-27T04:23:44.479Z,3.75
2017-06-27T04:26:11.534Z,3.65
2017-06-27T04:28:43.588Z,3.10
2017-06-27T04:31:12.271Z,3.90
2017-06-27T04:33:41.528Z,4.07
2017-06-27T04:36:10.957Z,4.33
2017-06-27T04:38:42.310Z,4.37
2017-06-27T04:41:14.434Z,3.33
2017-06-27T04:43:42.562Z,3.55
2017-06-27T04:46:09.775Z,4.08
2017-06-27T04:48:38.567Z,4.40
2017-06-27T04:51:05.336Z,4.45
2017-06-27T04:53:32.103Z,3.77
2017-06-27T04:56:01.688Z,4.17
2017-06-27T04:58:35.434Z,4.00
2017-06-27T05:01:05.315Z,3.77
2017-06-27T05:03:33.625Z,3.50
2017-06-27T05:06:01.650Z,3.48
2017-06-27T05:08:32.097Z,3.92
2017-06-27T05:13:32.556Z,5.25
2017-06-27T05:18:36.000Z,3.43
2017-06-27T05:21:04.112Z,4.37
2017-06-27T05:23:32.840Z,3.17
2017-06-27T05:26:00.680Z,4.50
2017-06-27T05:31:04.650Z,3.10
2017-06-27T05:33:31.719Z,3.38
2017-06-27T05:35:58.706Z,4.58
2017-06-27T05:38:25.738Z,4.60
2017-06-27T05:40:52.714Z,4.13
2017-06-27T05:43:19.472Z,3.95
2017-06-27T05:45:47.375Z,4.12
2017-06-27T05:48:14.484Z,3.02
2017-06-27T05:50:41.486Z,3.70
2017-06-27T05:53:09.004Z,4.37
2017-06-27T05:55:36.130Z,6.47
2017-06-27T05:58:03.156Z,3.63
2017-06-27T06:00:30.546Z,3.63
2017-06-27T06:02:57.303Z,3.58
2017-06-27T06:05:24.284Z,3.08
2017-06-27T06:07:52.131Z,3.00
2017-06-27T06:10:18.879Z,3.65
2017-06-27T06:12:46.375Z,3.50
2017-06-27T06:15:14.039Z,3.23
2017-06-27T06:17:40.812Z,2.88
2017-06-27T06:20:07.555Z,3.32
2017-06-27T06:22:35.375Z,3.13
2017-06-27T06:25:02.360Z,3.25
2017-06-27T06:27:29.124Z,2.57
2017-06-27T06:29:56.499Z,2.97
2017-06-27T06:32:23.483Z,2.68
2017-06-27T06:34:50.491Z,2.68
2017-06-27T06:37:17.540Z,3.52
2017-06-27T06:39:44.289Z,3.13
2017-06-27T06:42:11.294Z,3.30
2017-06-27T06:44:38.902Z,2.73
2017-06-27T06:47:05.661Z,3.72
2017-06-27T06:49:32.800Z,2.77
2017-06-27T06:52:00.029Z,3.10
2017-06-27T06:54:30.093Z,3.47
2017-06-27T06:56:56.853Z,3.30
2017-06-27T06:59:24.257Z,3.92
2017-06-27T07:01:51.437Z,2.95
2017-06-27T07:04:18.428Z,3.17
2017-06-27T07:06:45.504Z,3.28
2017-06-27T07:09:12.242Z,2.90
2017-06-27T07:11:39.236Z,2.33
2017-06-27T07:14:06.351Z,3.10
2017-06-27T07:16:33.332Z,2.98
2017-06-27T07:19:00.703Z,4.55
2017-06-27T07:21:27.890Z,2.87
2017-06-27T07:23:54.634Z,3.43
2017-06-27T07:26:21.375Z,3.40
2017-06-27T07:28:48.422Z,3.30
2017-06-27T07:31:15.189Z,3.25
2017-06-27T07:33:42.729Z,3.75
2017-06-27T07:36:09.754Z,3.18
2017-06-27T07:38:36.505Z,3.37
2017-06-27T07:41:03.499Z,3.48
2017-06-27T07:43:31.223Z,2.57
2017-06-27T07:45:57.985Z,3.00
2017-06-27T07:48:24.740Z,3.40
2017-06-27T07:50:52.653Z,5.30
2017-06-27T07:53:19.412Z,3.03
2017-06-27T07:55:47.049Z,3.78
2017-06-27T07:58:14.190Z,4.02
2017-06-27T08:00:40.951Z,2.77
2017-06-27T08:03:07.717Z,2.62
2017-06-27T08:05:34.889Z,3.37
2017-06-27T08:08:02.254Z,3.87
2017-06-27T08:10:29.036Z,3.73
2017-06-27T08:12:57.218Z,3.80
2017-06-27T08:15:24.958Z,2.97
2017-06-27T08:17:52.203Z,3.17
2017-06-27T08:20:20.181Z,3.43
2017-06-27T08:22:47.168Z,3.62
2017-06-27T08:25:13.927Z,3.67
2017-06-27T08:27:41.323Z,3.52
2017-06-27T08:30:08.463Z,3.45
2017-06-27T19:41:33.348Z,12.98
2017-06-27T19:44:06.119Z,13.77
2017-06-27T19:46:37.575Z,12.93
2017-06-27T19:49:08.893Z,13.92
2017-06-27T19:51:38.933Z,13.38
2017-06-27T19:54:09.737Z,12.90
2017-06-27T19:59:17.112Z,12.38
2017-06-27T20:01:47.498Z,12.53
2017-06-27T20:04:14.793Z,12.35
2017-06-27T20:06:44.385Z,12.00
2017-06-27T20:09:13.645Z,12.23
2017-06-27T20:11:43.121Z,12.17
2017-06-27T20:14:16.437Z,12.13
2017-06-27T20:16:45.998Z,11.27
2017-06-27T20:19:13.919Z,10.78
2017-06-27T20:21:45.441Z,10.67
2017-06-27T20:24:13.805Z,12.07
2017-06-27T20:26:43.220Z,11.17
2017-06-27T20:29:12.473Z,11.73
2017-06-27T20:31:41.273Z,12.32
2017-06-27T20:34:08.858Z,11.85
2017-06-27T20:36:37.514Z,10.63
2017-06-27T20:39:12.132Z,10.33
2017-06-27T20:41:39.321Z,10.48
2017-06-27T20:44:12.284Z,10.30
2017-06-27T20:46:41.517Z,10.27
2017-06-27T20:49:09.033Z,11.13
2017-06-27T20:51:36.257Z,9.93
2017-06-27T20:54:03.473Z,10.13
2017-06-27T20:56:31.582Z,11.18
2017-06-27T20:58:59.897Z,10.98
2017-06-27T21:01:33.325Z,10.87
2017-06-27T21:04:01.520Z,10.78
2017-06-27T21:09:01.229Z,10.70
2017-06-27T21:11:32.661Z,11.20
2017-06-27T21:14:02.967Z,11.23
2017-06-27T21:16:30.953Z,11.15
2017-06-27T21:18:57.752Z,7.97
2017-06-27T21:21:25.736Z,6.50
2017-06-27T21:23:53.794Z,6.57
2017-06-27T21:26:23.680Z,11.58
2017-06-27T21:28:56.118Z,11.80
2017-06-27T21:31:27.387Z,12.07
2017-06-27T21:33:57.745Z,11.73
2017-06-27T21:36:29.651Z,10.65
2017-06-27T21:38:56.420Z,10.15
2017-06-27T21:41:25.755Z,11.58
2017-06-27T21:44:04.168Z,11.03
2017-06-27T21:46:35.944Z,11.25
2017-06-27T21:49:03.756Z,10.20
2017-06-27T21:51:31.139Z,10.58
2017-06-27T21:56:36.684Z,12.18
2017-06-27T21:59:07.543Z,11.93
2017-06-27T22:01:37.122Z,12.97
2017-06-27T22:04:04.298Z,11.35
2017-06-27T22:06:32.752Z,13.52
2017-06-27T22:09:01.119Z,11.63
2017-06-27T22:11:28.424Z,10.50
2017-06-27T22:13:56.613Z,12.58
2017-06-27T22:19:03.229Z,10.97
2017-06-27T22:21:42.942Z,11.92
2017-06-27T22:24:10.860Z,12.72
2017-06-27T22:26:39.102Z,11.97
2017-06-27T22:29:06.531Z,12.78
2017-06-27T22:31:34.719Z,11.65
2017-06-27T22:34:04.396Z,11.82
2017-06-27T22:39:09.333Z,13.53
2017-06-27T22:44:15.436Z,13.10
2017-06-27T22:54:20.827Z,12.70
2017-06-27T22:56:52.100Z,13.50
2017-06-27T22:59:20.575Z,15.10
2017-06-27T23:04:21.600Z,13.05
2017-06-27T23:06:51.933Z,15.08
2017-06-27T23:09:21.672Z,14.97
2017-06-27T23:14:27.393Z,15.47
2017-06-27T23:16:56.232Z,15.13
2017-06-27T23:19:26.282Z,16.32
2017-06-27T23:21:53.124Z,17.63
2017-06-27T23:24:22.398Z,16.43
2017-06-27T23:32:02.703Z,16.63
2017-06-27T23:34:31.789Z,16.67
2017-06-27T23:37:00.820Z,17.38
2017-06-27T23:39:29.347Z,17.40
2017-06-27T23:41:57.900Z,17.17
2017-06-27T23:44:25.063Z,16.18
2017-06-27T23:49:27.963Z,18.77
2017-06-27T23:51:56.431Z,17.57
2017-06-27T23:54:26.966Z,19.20
2017-06-27T23:56:55.400Z,18.48
2017-06-27T23:59:24.051Z,17.85
